Time;durP1;ratioP1;P1;durP2;ratioP2;P2;SDS_P1;SDS_P2;PMS_P1;PMS_P2;Temp;Humidity;BMP_temperature;BMP_pressure;BME280_temperature;BME280_humidity;BME280_pressure;Samples;Min_cycle;Max_cycle;Signal;HPM_P1;HPM_P2
2021/12/10 00:00:49;;;;;;;;;58.25;49.25;7.60;71.90;;;;;;5056861;28;8778;-70
2021/12/10 00:03:22;;;;;;;;;52.00;45.25;7.50;71.40;;;;;;5056780;28;8778;-70
2021/12/10 00:05:57;;;;;;;;;48.50;43.50;7.50;71.70;;;;;;5056568;28;9487;-70
2021/12/10 00:08:26;;;;;;;;;53.25;46.25;7.60;71.70;;;;;;5056788;28;8949;-71
2021/12/10 00:10:55;;;;;;;;;56.50;50.00;7.60;71.50;;;;;;5056673;28;8779;-70
2021/12/10 00:13:21;;;;;;;;;62.00;50.00;7.70;70.80;;;;;;5056868;28;8793;-71
2021/12/10 00:15:47;;;;;;;;;50.25;45.50;7.70;71.30;;;;;;5056067;28;8744;-70
2021/12/10 00:18:17;;;;;;;;;48.00;43.25;7.60;71.10;;;;;;5054303;28;8783;-72
2021/12/10 00:20:45;;;;;;;;;54.00;47.00;7.70;70.90;;;;;;5056793;28;8786;-71
2021/12/10 00:23:15;;;;;;;;;47.75;43.50;7.80;70.60;;;;;;5056399;28;8791;-71
2021/12/10 00:25:49;;;;;;;;;50.00;45.25;7.30;72.60;;;;;;5056406;28;8767;-71
2021/12/10 00:28:23;;;;;;;;;53.00;47.00;7.60;71.70;;;;;;5056086;28;8791;-71
2021/12/10 00:31:02;;;;;;;;;61.25;48.00;7.70;71.00;;;;;;5056033;28;8767;-71
2021/12/10 00:33:36;;;;;;;;;50.25;44.75;8.00;70.20;;;;;;5056509;28;8783;-72
2021/12/10 00:36:03;;;;;;;;;54.25;47.25;8.00;69.90;;;;;;5056279;28;8853;-71
2021/12/10 00:38:30;;;;;;;;;50.50;46.00;8.10;69.60;;;;;;5056297;28;8867;-71
2021/12/10 00:40:56;;;;;;;;;56.25;48.25;8.10;69.60;;;;;;5056157;28;8847;-72
2021/12/10 00:43:22;;;;;;;;;55.75;47.75;8.00;69.80;;;;;;5056133;28;8767;-71
2021/12/10 00:45:48;;;;;;;;;61.00;50.75;8.00;70.30;;;;;;5056098;28;8829;-72
2021/12/10 00:48:14;;;;;;;;;59.25;51.25;8.20;69.70;;;;;;5055870;28;9452;-71
2021/12/10 00:50:48;;;;;;;;;58.00;49.75;8.30;69.50;;;;;;5055943;28;8778;-70
2021/12/10 00:53:15;;;;;;;;;54.50;47.00;8.10;69.40;;;;;;5056019;28;8948;-71
2021/12/10 00:55:41;;;;;;;;;52.50;46.00;7.90;70.60;;;;;;5056112;28;8779;-71
2021/12/10 00:58:07;;;;;;;;;52.75;46.50;7.70;70.90;;;;;;5055705;28;9382;-71
2021/12/10 01:00:38;;;;;;;;;48.75;44.25;7.10;73.30;;;;;;5055675;28;8798;-72
2021/12/10 01:03:07;;;;;;;;;46.50;42.50;6.90;74.50;;;;;;5055940;28;8762;-72
2021/12/10 01:05:34;;;;;;;;;47.75;42.00;6.80;75.60;;;;;;5055746;28;8755;-71
2021/12/10 01:08:00;;;;;;;;;48.25;44.25;7.00;74.40;;;;;;5055483;28;8835;-71
2021/12/10 01:10:30;;;;;;;;;54.50;46.75;6.90;75.20;;;;;;5055545;28;8889;-71
2021/12/10 01:13:01;;;;;;;;;50.00;45.75;6.60;76.20;;;;;;5055804;28;8763;-70
2021/12/10 01:16:09;;;;;;;;;58.00;50.00;7.00;75.30;;;;;;5055779;28;8786;-72
2021/12/10 01:24:05;;;;;;;;;59.75;50.25;8.20;70.10;;;;;;5055606;28;8791;-71
2021/12/10 01:29:18;;;;;;;;;51.00;45.25;8.20;69.90;;;;;;5054920;28;8798;-70
2021/12/10 01:31:45;;;;;;;;;50.50;45.25;7.50;72.70;;;;;;5055189;28;8778;-72
2021/12/10 01:34:11;;;;;;;;;60.50;50.00;7.50;72.80;;;;;;5055302;28;8763;-71
2021/12/10 01:36:38;;;;;;;;;60.75;51.75;7.80;72.40;;;;;;5055080;28;8875;-73
2021/12/10 01:39:08;;;;;;;;;64.25;54.00;8.10;71.00;;;;;;5055305;28;8795;-72
2021/12/10 01:41:38;;;;;;;;;67.75;57.25;8.40;69.90;;;;;;5054990;28;8799;-73
2021/12/10 01:44:14;;;;;;;;;65.00;53.25;8.60;69.00;;;;;;5054840;28;8793;-73
2021/12/10 01:46:42;;;;;;;;;60.50;52.25;8.50;69.10;;;;;;5054898;28;8789;-70
2021/12/10 01:49:09;;;;;;;;;66.25;56.00;8.40;69.10;;;;;;5054935;28;8802;-70
2021/12/10 01:51:38;;;;;;;;;70.50;59.75;8.40;69.60;;;;;;5055028;28;8770;-70
2021/12/10 01:54:13;;;;;;;;;66.00;56.75;8.40;69.70;;;;;;5054971;28;8824;-70
2021/12/10 01:56:41;;;;;;;;;60.50;52.00;7.90;71.10;;;;;;5054697;28;8779;-70
2021/12/10 01:59:11;;;;;;;;;59.25;51.00;8.00;71.70;;;;;;5054884;28;8770;-69
2021/12/10 02:01:44;;;;;;;;;67.50;56.50;8.20;71.00;;;;;;5054595;28;8767;-70
2021/12/10 02:04:13;;;;;;;;;62.25;52.25;8.40;70.50;;;;;;5054595;28;8759;-70
2021/12/10 02:06:41;;;;;;;;;57.75;50.00;8.40;70.00;;;;;;5054357;28;8802;-70
2021/12/10 02:09:08;;;;;;;;;57.75;50.50;8.70;69.20;;;;;;5054717;28;9457;-74
2021/12/10 02:11:34;;;;;;;;;64.00;54.25;8.90;68.60;;;;;;5054830;28;8763;-72
2021/12/10 02:14:01;;;;;;;;;60.00;51.25;8.80;68.50;;;;;;5054415;28;8771;-74
2021/12/10 02:16:27;;;;;;;;;60.75;50.75;8.60;68.90;;;;;;5054452;28;8771;-72
2021/12/10 02:18:53;;;;;;;;;58.75;50.00;7.90;71.30;;;;;;5054456;28;8771;-73
2021/12/10 02:21:22;;;;;;;;;60.00;50.25;7.70;72.00;;;;;;5054342;28;8868;-72
2021/12/10 02:23:56;;;;;;;;;61.25;50.25;7.40;73.40;;;;;;5054530;28;8791;-73
2021/12/10 02:26:27;;;;;;;;;61.00;52.00;7.30;74.20;;;;;;5054326;28;8783;-70
2021/12/10 02:28:54;;;;;;;;;60.00;50.50;7.60;72.70;;;;;;5054326;28;8872;-72
2021/12/10 02:31:20;;;;;;;;;62.25;53.25;7.50;73.70;;;;;;5054594;28;8759;-71
2021/12/10 02:33:46;;;;;;;;;63.75;54.25;7.00;75.10;;;;;;5054225;28;8786;-72
2021/12/10 02:36:12;;;;;;;;;62.25;53.50;7.30;75.30;;;;;;5054443;28;8794;-73
2021/12/10 02:38:48;;;;;;;;;57.25;48.50;7.40;74.50;;;;;;5054324;28;8787;-71
2021/12/10 02:41:16;;;;;;;;;57.00;49.50;7.80;73.00;;;;;;5057772;28;8856;-74
2021/12/10 02:43:43;;;;;;;;;59.00;51.00;7.60;72.60;;;;;;5058252;28;8818;-73
2021/12/10 02:46:09;;;;;;;;;58.25;49.75;7.90;71.90;;;;;;5058295;28;8763;-71
2021/12/10 02:48:35;;;;;;;;;60.50;51.25;8.00;71.40;;;;;;5058121;28;8807;-72
2021/12/10 02:51:04;;;;;;;;;60.50;51.50;8.10;70.40;;;;;;5058433;28;8763;-73
2021/12/10 02:53:34;;;;;;;;;63.25;52.50;7.90;70.30;;;;;;5058070;28;8857;-72
2021/12/10 02:56:00;;;;;;;;;54.00;47.00;7.20;73.60;;;;;;5057122;28;8795;-72
2021/12/10 02:58:27;;;;;;;;;57.00;49.00;6.70;75.20;;;;;;5058227;28;8861;-73
2021/12/10 03:00:58;;;;;;;;;62.75;53.50;6.50;77.00;;;;;;5057993;28;8773;-73
2021/12/10 03:03:25;;;;;;;;;63.25;53.75;7.10;74.30;;;;;;5058027;28;8853;-72
2021/12/10 03:05:51;;;;;;;;;55.50;48.00;7.10;74.20;;;;;;5058008;28;9429;-73
2021/12/10 03:08:17;;;;;;;;;50.75;45.25;7.40;72.90;;;;;;5058088;28;9491;-72
2021/12/10 03:10:43;;;;;;;;;44.50;42.00;7.80;70.70;;;;;;5057868;28;8751;-72
2021/12/10 03:13:11;;;;;;;;;47.25;43.25;7.90;68.90;;;;;;5057805;28;8778;-71
2021/12/10 03:15:37;;;;;;;;;27.00;27.00;7.20;71.80;;;;;;5056748;28;8779;-71
2021/12/10 03:18:09;;;;;;;;;42.25;37.75;6.20;75.50;;;;;;5057901;28;8782;-72
2021/12/10 03:20:35;;;;;;;;;45.75;41.25;6.20;76.20;;;;;;5057659;28;8771;-72
2021/12/10 03:23:03;;;;;;;;;46.75;43.00;6.80;73.80;;;;;;5057918;28;8743;-70
2021/12/10 03:25:29;;;;;;;;;38.50;38.50;7.20;72.10;;;;;;5057555;28;8763;-70
2021/12/10 03:27:54;;;;;;;;;52.50;45.50;6.60;74.10;;;;;;5057657;28;8813;-71
2021/12/10 03:30:31;;;;;;;;;51.25;45.50;6.70;74.40;;;;;;5057428;28;8782;-71
2021/12/10 03:32:57;;;;;;;;;49.50;44.25;7.20;72.90;;;;;;5057490;28;8836;-70
2021/12/10 03:35:30;;;;;;;;;46.00;41.25;7.70;70.70;;;;;;5057325;28;9417;-70
2021/12/10 03:37:59;;;;;;;;;46.50;42.50;7.60;70.70;;;;;;5057392;28;8790;-70
2021/12/10 03:40:25;;;;;;;;;48.00;44.00;7.30;72.00;;;;;;5057365;28;8763;-70
2021/12/10 03:42:58;;;;;;;;;41.00;39.25;7.50;71.30;;;;;;5057144;28;8767;-71
2021/12/10 03:45:28;;;;;;;;;51.75;45.25;7.60;71.10;;;;;;5057257;28;8824;-70
2021/12/10 03:47:54;;;;;;;;;46.50;42.00;7.80;69.80;;;;;;5056960;28;8794;-71
2021/12/10 03:50:30;;;;;;;;;51.50;44.25;7.40;70.90;;;;;;5056919;28;8873;-70
2021/12/10 03:52:56;;;;;;;;;55.25;47.75;7.00;72.20;;;;;;5057150;28;8747;-71
2021/12/10 03:55:23;;;;;;;;;54.50;48.00;7.10;72.90;;;;;;5057051;28;8751;-71
2021/12/10 03:57:50;;;;;;;;;49.00;43.50;6.70;74.30;;;;;;5057158;28;8849;-72
2021/12/10 04:00:18;;;;;;;;;52.25;45.00;7.00;73.60;;;;;;5056870;28;8774;-71
2021/12/10 04:02:44;;;;;;;;;42.25;40.25;6.90;73.90;;;;;;5056855;28;8767;-71
2021/12/10 04:05:10;;;;;;;;;55.25;48.25;7.20;72.60;;;;;;5056760;28;8956;-71
2021/12/10 04:07:36;;;;;;;;;49.50;45.00;7.10;72.20;;;;;;5056468;28;8850;-71
2021/12/10 04:10:06;;;;;;;;;48.00;44.75;7.30;72.00;;;;;;5056657;28;8771;-71
2021/12/10 04:12:33;;;;;;;;;49.00;44.50;7.60;70.50;;;;;;5056633;28;8941;-70
2021/12/10 04:15:00;;;;;;;;;58.00;49.00;7.60;70.50;;;;;;5056568;28;8786;-71
2021/12/10 04:17:26;;;;;;;;;57.00;48.50;7.50;70.40;;;;;;5056601;28;8779;-70
2021/12/10 04:19:52;;;;;;;;;56.25;47.75;7.70;69.70;;;;;;5056581;28;8763;-71
2021/12/10 04:22:20;;;;;;;;;60.50;51.00;7.40;70.70;;;;;;5056505;28;8774;-71
2021/12/10 04:24:46;;;;;;;;;49.75;44.75;7.30;71.50;;;;;;5056560;28;8799;-71
2021/12/10 04:27:14;;;;;;;;;49.50;45.50;7.30;71.20;;;;;;5056381;28;8764;-71
2021/12/10 04:29:40;;;;;;;;;56.25;47.00;7.60;70.00;;;;;;5056589;28;8755;-71
2021/12/10 04:32:08;;;;;;;;;51.50;45.00;7.80;69.00;;;;;;5056302;28;8782;-71
2021/12/10 04:34:35;;;;;;;;;53.25;47.25;7.70;68.70;;;;;;5056206;28;8789;-71
2021/12/10 04:37:04;;;;;;;;;52.50;44.50;7.60;69.00;;;;;;5056449;28;8779;-71
2021/12/10 04:39:30;;;;;;;;;58.00;49.00;7.10;70.80;;;;;;5056564;28;8891;-71
2021/12/10 04:41:57;;;;;;;;;40.00;38.75;7.30;70.70;;;;;;5056118;28;8791;-71
2021/12/10 04:44:23;;;;;;;;;53.50;46.75;7.50;69.10;;;;;;5056088;28;8787;-71
2021/12/10 04:46:49;;;;;;;;;52.25;46.50;7.30;69.90;;;;;;5056154;28;8775;-70
2021/12/10 04:49:17;;;;;;;;;55.00;47.75;7.00;70.60;;;;;;5055928;28;8807;-71
2021/12/10 04:51:50;;;;;;;;;50.50;45.75;7.20;69.80;;;;;;5055953;28;8782;-71
2021/12/10 04:54:19;;;;;;;;;50.25;46.00;6.60;71.60;;;;;;5056278;28;8766;-71
2021/12/10 04:56:47;;;;;;;;;44.25;41.25;6.40;72.60;;;;;;5055791;28;8767;-71
2021/12/10 04:59:16;;;;;;;;;55.00;46.50;5.90;74.80;;;;;;5056246;28;8787;-70
2021/12/10 05:01:42;;;;;;;;;47.00;43.25;6.30;73.60;;;;;;5055675;28;8767;-70
2021/12/10 05:04:11;;;;;;;;;42.50;40.25;6.30;73.60;;;;;;5055194;28;8775;-71
2021/12/10 05:06:39;;;;;;;;;51.50;46.00;6.50;73.90;;;;;;5054675;28;8813;-71
2021/12/10 05:09:09;;;;;;;;;57.00;48.25;6.80;71.20;;;;;;5055468;28;8835;-71
2021/12/10 05:11:35;;;;;;;;;51.25;45.00;7.10;70.50;;;;;;5055650;28;8755;-71
2021/12/10 05:14:01;;;;;;;;;59.25;51.25;7.00;70.20;;;;;;5055471;28;9502;-70
2021/12/10 05:16:28;;;;;;;;;68.00;53.50;7.00;70.30;;;;;;5055545;28;8783;-72
2021/12/10 05:18:58;;;;;;;;;62.25;52.00;7.30;69.20;;;;;;5055393;28;8771;-72
2021/12/10 05:21:30;;;;;;;;;62.00;52.75;7.70;68.30;;;;;;5062539;28;8796;-72
2021/12/10 05:23:57;;;;;;;;;64.50;54.00;7.90;67.20;;;;;;5064927;28;8799;-71
2021/12/10 05:26:23;;;;;;;;;58.00;49.25;7.80;67.20;;;;;;5055533;28;9461;-71
2021/12/10 05:28:49;;;;;;;;;58.75;50.00;7.20;68.50;;;;;;5060806;28;8808;-71
2021/12/10 05:31:16;;;;;;;;;58.25;50.00;7.20;68.70;;;;;;5063891;28;8790;-70
2021/12/10 05:33:42;;;;;;;;;52.75;46.25;7.00;69.80;;;;;;5066990;28;8787;-70
2021/12/10 05:36:08;;;;;;;;;50.50;44.00;7.00;69.70;;;;;;5060213;28;8784;-71
2021/12/10 05:38:36;;;;;;;;;46.00;41.25;6.80;70.50;;;;;;5062486;28;8896;-70
2021/12/10 05:41:05;;;;;;;;;39.00;38.25;6.60;70.60;;;;;;5060661;28;8833;-64
2021/12/10 05:43:33;;;;;;;;;46.50;43.00;6.70;69.50;;;;;;5065070;28;8801;-66
2021/12/10 05:45:58;;;;;;;;;48.75;44.75;6.80;69.70;;;;;;5054879;28;8783;-65
2021/12/10 05:48:24;;;;;;;;;50.75;45.50;6.90;69.60;;;;;;5057082;28;8814;-65
2021/12/10 05:50:51;;;;;;;;;45.00;41.75;7.00;68.70;;;;;;5066587;28;8779;-65
2021/12/10 05:53:17;;;;;;;;;51.75;45.75;7.00;68.20;;;;;;5062685;28;8776;-64
2021/12/10 05:55:44;;;;;;;;;51.50;45.25;7.20;67.50;;;;;;5067199;28;8760;-63
2021/12/10 05:58:10;;;;;;;;;57.50;48.75;7.30;67.20;;;;;;5063817;28;8780;-62
2021/12/10 06:01:04;;;;;;;;;61.25;52.50;7.40;67.20;;;;;;5061497;28;9439;-68
2021/12/10 06:03:32;;;;;;;;;60.75;52.25;7.60;66.20;;;;;;5073967;28;8838;-69
2021/12/10 06:05:59;;;;;;;;;61.00;53.00;7.40;66.30;;;;;;5074342;28;8820;-70
2021/12/10 06:08:25;;;;;;;;;65.25;56.25;7.10;67.40;;;;;;5074622;28;8909;-68
2021/12/10 06:10:53;;;;;;;;;50.75;45.00;7.10;67.60;;;;;;5074534;28;8772;-70
2021/12/10 06:13:18;;;;;;;;;61.25;52.50;7.20;67.50;;;;;;5074401;28;8915;-68
2021/12/10 06:15:45;;;;;;;;;59.00;51.00;7.20;67.00;;;;;;5073542;28;8777;-69
2021/12/10 06:18:12;;;;;;;;;58.75;50.25;7.40;67.00;;;;;;5074382;28;8772;-69
2021/12/10 06:20:41;;;;;;;;;68.75;58.00;7.40;66.60;;;;;;5074535;28;8765;-70
2021/12/10 06:23:08;;;;;;;;;66.75;57.25;6.90;68.30;;;;;;5074400;28;8877;-71
2021/12/10 06:25:35;;;;;;;;;70.25;59.25;6.80;69.40;;;;;;5074526;28;8756;-69
2021/12/10 06:28:02;;;;;;;;;76.00;64.00;6.90;69.10;;;;;;5074335;28;8830;-71
2021/12/10 06:30:32;;;;;;;;;78.75;64.75;6.70;69.90;;;;;;5074291;28;8796;-71
2021/12/10 06:33:01;;;;;;;;;69.75;59.25;7.10;68.40;;;;;;5074464;28;8780;-68
2021/12/10 06:35:29;;;;;;;;;63.50;54.25;7.30;67.50;;;;;;5074355;28;8757;-68
2021/12/10 06:37:55;;;;;;;;;68.00;56.50;7.00;68.10;;;;;;5074311;28;8816;-67
2021/12/10 06:40:24;;;;;;;;;65.00;55.50;7.00;68.20;;;;;;5074529;28;8884;-69
2021/12/10 06:42:51;;;;;;;;;70.25;58.00;7.10;67.60;;;;;;5074228;28;8768;-69
2021/12/10 06:45:22;;;;;;;;;56.00;48.75;7.20;68.20;;;;;;5074208;28;9506;-67
2021/12/10 06:47:50;;;;;;;;;57.50;50.00;6.90;68.50;;;;;;5074364;28;8906;-70
2021/12/10 06:50:21;;;;;;;;;63.50;53.00;6.70;70.10;;;;;;5074381;28;8749;-69
2021/12/10 06:52:47;;;;;;;;;57.50;48.50;6.40;71.10;;;;;;5074128;28;8757;-70
2021/12/10 06:55:15;;;;;;;;;71.50;59.25;7.00;69.40;;;;;;5073978;28;8769;-70
2021/12/10 06:57:41;;;;;;;;;74.25;60.75;7.20;68.50;;;;;;5074115;28;9389;-70
2021/12/10 07:00:18;;;;;;;;;87.00;72.75;6.80;69.90;;;;;;5074008;28;8787;-68
2021/12/10 07:02:44;;;;;;;;;98.25;90.00;6.40;70.60;;;;;;5074219;28;8787;-69
2021/12/10 07:05:10;;;;;;;;;93.75;84.75;6.20;72.10;;;;;;5073896;28;8772;-68
2021/12/10 07:07:38;;;;;;;;;86.25;72.00;6.20;72.40;;;;;;5073428;28;8840;-70
2021/12/10 07:10:05;;;;;;;;;80.75;66.00;5.90;74.10;;;;;;5074189;28;8764;-70
2021/12/10 07:12:34;;;;;;;;;76.25;62.75;6.30;73.20;;;;;;5074200;28;9469;-70
2021/12/10 07:15:02;;;;;;;;;77.50;64.00;6.50;71.90;;;;;;5074241;28;8787;-70
2021/12/10 07:17:28;;;;;;;;;74.75;62.25;6.30;73.10;;;;;;5073219;28;8784;-69
2021/12/10 07:19:55;;;;;;;;;73.25;59.25;6.50;72.30;;;;;;5074086;28;8745;-70
2021/12/10 07:22:21;;;;;;;;;73.00;60.00;6.00;73.80;;;;;;5074098;28;8884;-71
2021/12/10 07:24:46;;;;;;;;;85.75;69.75;6.00;75.20;;;;;;5073801;28;8871;-67
2021/12/10 07:27:12;;;;;;;;;85.25;69.75;6.10;74.20;;;;;;5077097;28;8777;-69
2021/12/10 07:29:42;;;;;;;;;80.75;66.75;5.80;76.00;;;;;;5077428;28;9767;-69
2021/12/10 07:32:09;;;;;;;;;78.50;64.75;6.20;74.50;;;;;;5077397;28;8768;-70
2021/12/10 07:34:35;;;;;;;;;75.75;60.75;5.90;75.70;;;;;;5077346;28;8853;-72
2021/12/10 07:37:01;;;;;;;;;70.75;60.25;5.90;75.40;;;;;;5077553;28;8853;-69
2021/12/10 07:39:28;;;;;;;;;63.50;53.75;5.60;76.80;;;;;;5077597;28;8792;-69
2021/12/10 07:41:54;;;;;;;;;57.75;48.75;5.60;76.80;;;;;;5077286;28;8807;-69
2021/12/10 07:44:20;;;;;;;;;60.75;52.00;5.70;76.30;;;;;;5077416;28;8768;-69
2021/12/10 07:46:48;;;;;;;;;60.25;51.75;6.10;74.70;;;;;;5077218;28;8775;-69
2021/12/10 07:49:15;;;;;;;;;51.00;45.25;6.30;74.00;;;;;;5077274;28;8893;-70
2021/12/10 07:51:44;;;;;;;;;37.50;37.50;6.30;73.60;;;;;;5077149;28;8772;-70
2021/12/10 07:54:11;;;;;;;;;47.75;42.75;5.80;75.50;;;;;;5077111;28;8761;-69
2021/12/10 07:56:38;;;;;;;;;53.00;47.50;6.00;74.50;;;;;;5077311;28;8829;-69
2021/12/10 07:59:04;;;;;;;;;52.75;45.25;5.30;77.30;;;;;;5077280;28;8769;-69
2021/12/10 08:01:31;;;;;;;;;53.50;46.25;5.30;77.60;;;;;;5077212;28;8760;-68
2021/12/10 08:04:00;;;;;;;;;52.50;46.50;6.00;75.70;;;;;;5076830;28;8772;-65
2021/12/10 08:06:28;;;;;;;;;57.75;50.25;6.00;74.50;;;;;;5076653;28;8842;-67
2021/12/10 08:08:54;;;;;;;;;69.00;56.75;6.00;75.20;;;;;;5076737;28;9025;-63
2021/12/10 08:11:22;;;;;;;;;64.50;54.75;5.80;75.00;;;;;;5076676;28;8886;-63
2021/12/10 08:13:48;;;;;;;;;67.25;56.25;5.80;75.20;;;;;;5076734;28;8796;-63
2021/12/10 08:16:15;;;;;;;;;64.25;54.25;5.60;76.40;;;;;;5076273;28;8772;-63
2021/12/10 08:18:42;;;;;;;;;63.50;54.25;5.40;77.70;;;;;;5076740;28;8861;-67
2021/12/10 08:21:08;;;;;;;;;61.75;52.75;5.40;78.00;;;;;;5076572;28;8761;-68
2021/12/10 08:23:36;;;;;;;;;60.75;52.50;5.80;77.50;;;;;;5076536;28;8764;-67
2021/12/10 08:26:02;;;;;;;;;70.00;57.50;6.50;74.20;;;;;;5076267;28;8775;-68
2021/12/10 08:28:29;;;;;;;;;64.50;53.25;6.70;72.30;;;;;;5076340;28;8842;-68
2021/12/10 08:30:55;;;;;;;;;71.75;60.00;7.10;71.10;;;;;;5076275;28;8787;-67
2021/12/10 08:33:23;;;;;;;;;82.50;65.75;7.20;70.20;;;;;;5076265;28;8765;-68
2021/12/10 08:35:52;;;;;;;;;80.75;64.75;7.50;69.20;;;;;;5076272;28;8907;-70
2021/12/10 08:38:19;;;;;;;;;74.25;61.00;7.70;67.60;;;;;;5056984;28;8835;-68
2021/12/10 08:40:49;;;;;;;;;77.50;64.00;7.60;67.90;;;;;;5056137;28;8771;-68
2021/12/10 08:43:16;;;;;;;;;79.00;65.25;7.60;68.10;;;;;;5056108;28;8779;-67
2021/12/10 08:45:43;;;;;;;;;79.50;65.25;7.50;68.60;;;;;;5055576;28;8791;-69
2021/12/10 08:48:09;;;;;;;;;79.50;65.25;7.60;68.00;;;;;;5055875;28;8834;-69
2021/12/10 08:50:36;;;;;;;;;81.25;66.50;7.70;68.50;;;;;;5071584;28;8779;-69
2021/12/10 08:53:08;;;;;;;;;80.00;65.00;7.80;69.00;;;;;;5056158;28;8755;-69
2021/12/10 08:55:36;;;;;;;;;64.50;54.75;8.10;68.10;;;;;;5055952;28;8763;-69
2021/12/10 08:58:03;;;;;;;;;75.00;62.00;8.10;66.70;;;;;;5056099;28;8766;-69
2021/12/10 09:00:29;;;;;;;;;78.25;64.25;8.20;66.50;;;;;;5055131;28;8795;-66
2021/12/10 09:02:57;;;;;;;;;78.50;64.00;8.20;66.30;;;;;;5055610;28;8763;-68
2021/12/10 09:05:23;;;;;;;;;82.50;68.50;8.00;67.40;;;;;;5055669;28;9526;-70
2021/12/10 09:07:49;;;;;;;;;81.75;67.25;7.80;67.00;;;;;;5055459;28;8938;-66
2021/12/10 09:10:19;;;;;;;;;77.00;63.75;7.90;67.10;;;;;;5055724;28;9441;-68
2021/12/10 09:12:46;;;;;;;;;66.50;55.75;8.00;66.50;;;;;;5055563;28;8779;-67
2021/12/10 09:15:17;;;;;;;;;80.75;65.00;7.80;67.00;;;;;;5055015;28;8786;-68
2021/12/10 09:17:44;;;;;;;;;72.25;60.00;7.60;67.90;;;;;;5055436;28;8813;-66
2021/12/10 09:20:15;;;;;;;;;70.25;59.00;7.40;68.90;;;;;;5070969;28;8805;-69
2021/12/10 09:22:42;;;;;;;;;79.50;65.25;7.40;68.70;;;;;;5055325;28;8771;-69
2021/12/10 09:25:09;;;;;;;;;79.00;64.50;7.80;67.80;;;;;;5055488;28;9581;-69
2021/12/10 09:27:36;;;;;;;;;78.00;62.50;7.50;68.60;;;;;;5055211;28;8916;-69
2021/12/10 09:30:05;;;;;;;;;84.25;67.25;7.80;67.90;;;;;;5054625;28;8797;-68
2021/12/10 09:32:31;;;;;;;;;87.50;67.50;8.10;66.50;;;;;;5054888;28;8778;-69
2021/12/10 09:35:03;;;;;;;;;74.75;59.75;8.10;67.30;;;;;;5055024;28;8771;-67
2021/12/10 09:37:29;;;;;;;;;77.25;62.75;7.90;67.50;;;;;;5054891;28;8810;-66
2021/12/10 09:39:55;;;;;;;;;79.00;63.00;7.70;67.40;;;;;;5054919;28;8770;-68
2021/12/10 09:42:22;;;;;;;;;76.00;62.00;7.80;66.90;;;;;;5054848;28;8774;-66
2021/12/10 09:44:51;;;;;;;;;76.75;64.00;7.80;67.60;;;;;;5054619;28;8762;-65
2021/12/10 09:47:18;;;;;;;;;77.50;61.50;7.60;67.50;;;;;;5054722;28;8771;-66
2021/12/10 09:49:46;;;;;;;;;71.50;59.00;7.60;67.60;;;;;;5054590;28;8790;-63
2021/12/10 09:52:15;;;;;;;;;68.25;54.25;7.40;69.00;;;;;;5055033;28;8852;-64
2021/12/10 09:54:41;;;;;;;;;62.00;53.00;7.50;69.30;;;;;;5054789;28;8833;-66
2021/12/10 09:57:16;;;;;;;;;68.25;57.50;7.50;68.90;;;;;;5054649;28;8787;-64
2021/12/10 09:59:44;;;;;;;;;62.25;52.50;7.90;67.50;;;;;;5054204;28;8787;-65
2021/12/10 10:02:11;;;;;;;;;80.75;66.50;8.20;67.10;;;;;;5054587;28;8775;-64
2021/12/10 10:04:40;;;;;;;;;82.25;65.00;8.20;65.90;;;;;;5054808;28;8779;-63
2021/12/10 10:07:13;;;;;;;;;92.25;83.00;7.80;66.70;;;;;;5054272;28;8858;-64
2021/12/10 10:09:41;;;;;;;;;83.25;70.75;7.90;67.60;;;;;;5054418;28;8865;-64
2021/12/10 10:12:14;;;;;;;;;70.25;59.25;7.50;69.30;;;;;;5054738;28;8885;-65
2021/12/10 10:14:41;;;;;;;;;67.75;56.25;7.20;70.20;;;;;;5053918;28;8885;-63
2021/12/10 10:17:09;;;;;;;;;74.00;60.00;7.20;69.90;;;;;;5054401;28;8767;-64
2021/12/10 10:19:35;;;;;;;;;73.00;60.75;7.10;71.90;;;;;;5054382;28;8921;-64
2021/12/10 10:22:06;;;;;;;;;71.75;60.00;6.50;73.30;;;;;;5054273;28;8871;-64
2021/12/10 10:24:33;;;;;;;;;76.00;61.00;6.60;74.10;;;;;;5054398;28;8783;-64
2021/12/10 10:27:12;;;;;;;;;80.75;66.25;6.60;74.10;;;;;;5054165;28;9475;-63
2021/12/10 10:29:53;;;;;;;;;70.00;58.00;7.10;73.70;;;;;;5054500;28;9698;-64
2021/12/10 10:32:23;;;;;;;;;85.00;70.50;6.90;72.40;;;;;;5054204;28;8795;-66
2021/12/10 10:34:53;;;;;;;;;89.25;76.25;7.00;71.60;;;;;;5054206;28;8807;-63
2021/12/10 10:37:20;;;;;;;;;92.75;86.75;7.50;69.70;;;;;;5054349;28;8795;-65
2021/12/10 10:39:47;;;;;;;;;104.00;100.00;7.40;69.30;;;;;;5054354;28;8857;-65
2021/12/10 10:42:21;;;;;;;;;110.25;108.00;7.20;71.10;;;;;;5054276;28;8793;-65
2021/12/10 10:44:48;;;;;;;;;105.25;103.00;7.00;74.10;;;;;;5054128;28;8778;-64
2021/12/10 10:47:14;;;;;;;;;109.50;98.50;7.70;71.60;;;;;;5053956;28;8795;-63
2021/12/10 10:49:47;;;;;;;;;92.00;84.00;7.60;71.30;;;;;;5053849;28;8841;-65
2021/12/10 10:52:28;;;;;;;;;81.00;67.75;8.50;68.70;;;;;;5053894;28;8778;-65
2021/12/10 10:55:15;;;;;;;;;80.75;63.25;8.20;68.50;;;;;;5054256;28;9492;-65
2021/12/10 10:58:04;;;;;;;;;86.25;70.00;8.20;68.70;;;;;;5054022;28;8767;-64
2021/12/10 11:00:35;;;;;;;;;80.25;63.00;8.80;68.00;;;;;;5054528;28;8860;-64
2021/12/10 11:03:07;;;;;;;;;78.50;60.75;9.00;66.50;;;;;;5058171;28;8778;-63
2021/12/10 11:05:33;;;;;;;;;66.75;55.25;8.70;65.30;;;;;;5057825;28;8767;-65
2021/12/10 11:08:02;;;;;;;;;66.75;54.75;8.00;67.70;;;;;;5057969;28;8897;-65
2021/12/10 11:10:34;;;;;;;;;66.50;56.00;7.20;71.30;;;;;;5058057;28;8770;-65
2021/12/10 11:13:21;;;;;;;;;71.25;59.50;7.00;72.50;;;;;;5057915;28;8763;-65
2021/12/10 11:16:21;;;;;;;;;75.00;62.00;7.10;73.30;;;;;;5057796;28;8775;-65
2021/12/10 11:19:09;;;;;;;;;68.50;56.50;7.60;72.10;;;;;;5057716;28;8755;-65
2021/12/10 11:22:07;;;;;;;;;62.25;51.50;7.90;70.00;;;;;;5057595;28;8770;-63
2021/12/10 11:24:44;;;;;;;;;64.50;54.00;7.80;70.30;;;;;;5035317;28;8762;-63
2021/12/10 11:27:23;;;;;;;;;62.50;53.00;7.30;72.40;;;;;;5035365;28;8789;-64
2021/12/10 11:30:01;;;;;;;;;64.50;54.00;7.00;73.90;;;;;;5035402;28;8825;-64
2021/12/10 11:32:50;;;;;;;;;76.50;63.00;6.80;74.90;;;;;;5035392;28;8767;-63
2021/12/10 11:35:16;;;;;;;;;75.25;58.00;6.90;75.50;;;;;;5035277;28;8863;-62
2021/12/10 11:38:18;;;;;;;;;74.75;58.50;6.60;75.90;;;;;;5035042;28;8802;-62
2021/12/10 11:40:48;;;;;;;;;68.00;56.00;6.80;75.20;;;;;;5035056;28;8808;-61
2021/12/10 11:49:17;;;;;;;;;77.25;62.25;7.10;74.60;;;;;;5034984;28;8831;-62
2021/12/10 11:51:53;;;;;;;;;68.75;56.25;7.00;74.40;;;;;;5035129;28;8798;-63
2021/12/10 11:54:30;;;;;;;;;62.00;49.50;6.90;74.90;;;;;;5034939;28;8783;-63
2021/12/10 11:57:11;;;;;;;;;71.00;60.00;7.20;73.00;;;;;;5034831;28;8774;-63
2021/12/10 11:59:42;;;;;;;;;74.25;60.00;7.40;72.70;;;;;;5041066;28;8805;-63
2021/12/10 12:02:11;;;;;;;;;65.50;54.25;7.20;73.30;;;;;;5072541;28;8779;-63
2021/12/10 12:04:50;;;;;;;;;69.25;54.75;7.30;73.10;;;;;;5057117;28;8859;-63
2021/12/10 12:07:21;;;;;;;;;68.50;57.50;7.00;73.70;;;;;;5056493;28;8844;-63
2021/12/10 12:10:02;;;;;;;;;70.25;57.75;6.90;73.90;;;;;;5056667;28;8794;-63
2021/12/10 12:12:38;;;;;;;;;63.25;53.25;7.00;73.60;;;;;;5055281;28;8775;-63
2021/12/10 12:15:34;;;;;;;;;69.00;57.50;6.90;75.00;;;;;;5056675;28;8775;-63
2021/12/10 12:18:02;;;;;;;;;67.75;56.75;7.20;74.20;;;;;;5054385;28;8779;-62
2021/12/10 12:20:33;;;;;;;;;66.25;55.25;6.90;75.00;;;;;;5056747;28;9448;-63
2021/12/10 12:26:27;;;;;;;;;75.50;62.25;6.80;75.70;;;;;;5056428;28;8834;-62
2021/12/10 12:29:09;;;;;;;;;72.50;60.75;7.40;73.50;;;;;;5055174;28;8806;-62
2021/12/10 12:31:45;;;;;;;;;80.50;66.00;7.50;72.50;;;;;;5056341;28;9706;-62
2021/12/10 12:34:21;;;;;;;;;70.75;58.25;7.60;73.10;;;;;;5056241;28;8782;-63
2021/12/10 12:36:49;;;;;;;;;79.75;64.50;7.50;73.30;;;;;;5056316;28;8759;-63
2021/12/10 12:39:32;;;;;;;;;76.25;62.00;7.40;75.00;;;;;;5056751;28;8783;-63
2021/12/10 12:42:03;;;;;;;;;79.75;64.75;7.30;74.70;;;;;;5056480;28;8869;-62
2021/12/10 12:44:34;;;;;;;;;79.00;64.00;7.20;75.10;;;;;;5056186;28;8928;-62
2021/12/10 12:47:14;;;;;;;;;73.25;61.25;7.30;74.70;;;;;;5056006;28;8775;-62
2021/12/10 12:49:52;;;;;;;;;76.25;62.25;7.20;75.40;;;;;;5056130;28;8822;-62
2021/12/10 12:52:23;;;;;;;;;77.50;63.00;7.40;74.20;;;;;;5055902;28;8759;-62
2021/12/10 12:55:14;;;;;;;;;72.25;60.25;7.30;74.30;;;;;;5056130;28;8804;-62
2021/12/10 12:57:39;;;;;;;;;85.00;68.75;7.30;75.30;;;;;;5056026;28;8763;-62
2021/12/10 13:00:11;;;;;;;;;79.75;64.50;7.10;75.40;;;;;;5070715;28;8802;-62
2021/12/10 13:02:38;;;;;;;;;75.50;62.25;7.30;75.20;;;;;;5069936;28;8768;-62
2021/12/10 13:05:05;;;;;;;;;70.75;58.75;7.00;75.70;;;;;;5074706;28;9762;-62
2021/12/10 13:07:31;;;;;;;;;80.00;65.25;6.80;76.50;;;;;;5072538;28;8864;-62
2021/12/10 13:09:58;;;;;;;;;79.25;64.25;6.80;77.00;;;;;;5073942;28;8832;-65
2021/12/10 13:12:46;;;;;;;;;74.50;62.00;6.70;76.80;;;;;;5069529;28;8793;-64
2021/12/10 13:15:17;;;;;;;;;69.75;56.00;6.60;77.30;;;;;;5071786;28;8764;-64